Station: Hindmarsh Island  

  Atmospheric Gas Attenuation - ITU Rec 676-11   ----------------- dB/100km -----------------
Date Time Temp RH % AH g/m3 Dew Point Wind Direction Speed kph Gust kph Barometer mB Rainfall Since 9am 24GHz 47GHz 76GHz 122GHz 134GHz 241GHz
06/09 06:00 11.5 91 9.4 10.1 13 17 1021.7 1 21.4 28.3 44.7 117.5 113.2 389.9
06/09 05:50 11.5 91 9.4 10.1 11 15 1021.6 1 21.4 28.3 44.7 117.5 113.2 389.9
06/09 05:40 11.7 92 9.62 10.4 13 20 1021.5 1 21.9 28.6 45.6 119.7 116.0 399.7
06/09 05:30 11.4 92 9.44 10.1 11 17 1021.4 1 21.5 28.4 45.0 118.1 113.9 392.3
06/09 05:20 11.3 92 9.39 10 13 20 1021.3 1 21.4 28.3 44.8 117.6 113.3 390.3
06/09 05:10 11.2 92 9.33 10 13 15 1021.1 1 21.3 28.2 44.6 117.1 112.6 387.8
06/09 05:00 11.3 92 9.39 10 13 17 1021 1 21.4 28.3 44.8 117.6 113.3 390.2
06/09 04:50 11.3 92 9.39 10 15 20 1020.9 1 21.4 28.3 44.8 117.6 113.3 390.2
06/09 04:40 11.3 92 9.39 10 13 17 1020.9 1 21.4 28.3 44.8 117.6 113.3 390.2
06/09 04:30 11.3 92 9.39 10 15 19 1020.9 1 21.4 28.3 44.8 117.6 113.3 390.2
06/09 04:20 11.3 92 9.39 10 13 19 1020.7 1 21.4 28.3 44.8 117.6 113.3 390.1
06/09 04:10 11.3 92 9.39 10 13 19 1020.7 1 21.4 28.3 44.8 117.6 113.3 390.1
06/09 04:00 11.4 92 9.44 10.1 11 17 1020.6 1 21.5 28.3 44.9 118.0 113.8 392.1
06/09 03:50 11.8 92 9.68 10.5 15 26 1020.6 1 22.0 28.6 45.7 120.1 116.6 401.9
06/09 03:40 12 91 9.7 10.6 15 22 1020.6 1 22.0 28.6 45.7 120.1 116.6 401.9
06/09 03:30 11.8 90 9.47 10.2 13 19 1020.6 1 21.5 28.2 44.8 117.7 113.7 391.5
06/09 03:20 11.8 89 9.37 10 13 17 1020.6 1 21.3 28.1 44.4 116.6 112.3 386.6
06/09 03:10 12 88 9.38 10.1 13 17 1020.4 1 21.3 28.0 44.3 116.4 112.1 386.0
06/09 03:00 12 88 9.38 10.1 15 22 1020.3 1 21.3 28.0 44.3 116.4 112.1 386.0
06/09 02:50 12 88 9.38 10.1 19 24 1020.2 1 21.3 28.0 44.3 116.4 112.1 386.0
06/09 02:40 12 88 9.38 10.1 17 24 1020.3 1 21.3 28.0 44.3 116.4 112.1 386.0
06/09 02:30 12 88 9.38 10.1 20 28 1020.4 1 21.3 28.0 44.3 116.4 112.1 386.0
06/09 02:20 12.1 87 9.33 10 22 28 1020.6 1 21.2 27.9 44.1 115.7 111.3 383.2
06/09 02:10 12 87 9.27 9.9 19 24 1020.6 1 21.1 27.8 43.9 115.2 110.6 380.7
06/09 02:00 11.9 87 9.22 9.8 19 24 1020.7 1 21.0 27.8 43.7 114.7 110.0 378.8
06/09 01:50 11.9 87 9.22 9.8 20 26 1020.6 1 21.0 27.8 43.7 114.7 110.0 378.8
06/09 01:40 12.2 87 9.39 10.1 20 28 1020.7 1 21.4 28.0 44.3 116.2 112.0 385.6
06/09 01:30 12 86 9.17 9.7 17 24 1020.8 1 20.9 27.7 43.4 114.0 109.2 375.9
06/09 01:20 12 86 9.17 9.7 13 19 1020.9 1 20.9 27.7 43.4 114.1 109.2 375.9
06/09 01:10 12.2 86 9.28 9.9 17 20 1020.8 1 21.1 27.8 43.8 115.0 110.4 380.3
06/09 01:00 12.2 85 9.17 9.8 19 26 1020.9 1 20.9 27.6 43.3 113.8 108.9 375.0
06/09 00:50 12.3 85 9.23 9.9 20 32 1020.7 1 21.0 27.7 43.5 114.3 109.6 377.3
06/09 00:40 12.3 84 9.12 9.7 22 33 1020.5 1 20.8 27.5 43.1 113.0 108.0 372.0
06/09 00:30 12.2 83 8.96 9.4 19 24 1020.4 1 20.4 27.2 42.4 111.4 106.0 364.7
06/09 00:20 12.3 83 9.01 9.5 17 22 1020.3 1 20.5 27.3 42.6 111.8 106.5 366.6
06/09 00:10 12.5 84 9.24 9.9 19 26 1020.3 1 21.0 27.6 43.4 114.0 109.4 376.7
06/09 00:00 12.5 82 9.02 9.5 20 30 1020.3 1 20.5 27.2 42.5 111.6 106.4 366.1
05/09 23:50 12.6 82 9.07 9.6 17 24 1020.3 1 20.6 27.3 42.7 112.0 106.9 368.1
05/09 23:40 12.5 83 9.13 9.7 20 32 1020.2 1 20.8 27.4 43.0 112.8 107.9 371.4
05/09 23:30 12.3 87 9.45 10.2 20 32 1020.3 1 21.5 28.0 44.4 116.7 112.6 387.9
05/09 23:20 12.6 85 9.4 10.1 22 35 1020.3 1 21.4 27.9 44.1 115.7 111.5 384.0
05/09 23:10 12.8 81 9.07 9.6 22 44 1020.2 1 20.6 27.2 42.6 111.7 106.6 367.1
05/09 23:00 12.6 81 8.96 9.4 20 28 1020.1 1 20.4 27.1 42.2 110.8 105.4 362.7
05/09 22:50 12.6 81 8.96 9.4 20 30 1020 1 20.4 27.1 42.2 110.7 105.4 362.7
05/09 22:40 12.8 80 8.96 9.4 24 32 1019.8 1 20.4 27.0 42.1 110.4 105.1 361.7
05/09 22:30 12.8 81 9.07 9.6 20 30 1019.9 1 20.6 27.2 42.5 111.7 106.6 367.0
05/09 22:20 12.7 82 9.13 9.7 19 26 1019.8 1 20.8 27.3 42.8 112.5 107.6 370.3
05/09 22:10 12.8 82 9.19 9.8 20 30 1019.8 1 20.9 27.4 43.0 113.0 108.2 372.7
05/09 22:00 12.6 81 8.96 9.4 20 28 1019.7 1 20.4 27.1 42.2 110.7 105.4 362.6
05/09 21:50 12.7 81 9.02 9.5 24 35 1019.6 1 20.5 27.2 42.4 111.2 106.0 365.0
05/09 21:40 12.8 81 9.07 9.6 24 35 1019.4 1 20.6 27.2 42.5 111.6 106.6 366.9
05/09 21:30 12.7 81 9.02 9.5 24 35 1019.3 1 20.5 27.1 42.4 111.2 106.0 364.9
05/09 21:20 12.9 82 9.24 9.9 20 30 1019.3 1 21.0 27.5 43.2 113.3 108.7 374.5
05/09 21:10 12.8 82 9.19 9.8 22 32 1019.2 1 20.9 27.4 43.0 112.9 108.2 372.6
05/09 21:00 12.8 82 9.19 9.8 20 30 1019.1 1 20.9 27.4 43.0 112.9 108.2 372.5
05/09 20:50 12.8 82 9.19 9.8 20 32 1019 1 20.9 27.4 43.0 112.9 108.2 372.5
05/09 20:40 12.8 82 9.19 9.8 20 26 1019 1 20.9 27.4 43.0 112.9 108.2 372.5
05/09 20:30 12.9 82 9.24 9.9 22 32 1018.8 1 21.0 27.4 43.1 113.3 108.7 374.4
05/09 20:20 13 82 9.3 10 22 28 1018.7 1 21.1 27.5 43.3 113.8 109.4 376.7
05/09 20:10 12.9 82 9.24 9.9 22 37 1018.4 1 21.0 27.4 43.1 113.3 108.7 374.2
05/09 20:00 12.9 83 9.36 10.1 19 28 1018.3 1 21.3 27.6 43.6 114.6 110.3 380.0
05/09 19:50 12.8 84 9.41 10.2 20 28 1018.1 1 21.4 27.7 43.9 115.3 111.1 382.8
05/09 19:40 12.8 85 9.52 10.3 19 26 1017.9 1 21.6 27.9 44.3 116.5 112.6 388.1
05/09 19:30 12.8 86 9.63 10.5 17 24 1017.7 1 21.8 28.1 44.8 117.7 114.1 393.4
05/09 19:20 12.8 86 9.63 10.5 19 24 1017.4 1 21.8 28.1 44.8 117.7 114.1 393.3
05/09 19:10 12.7 86 9.57 10.4 20 26 1017.3 1 21.7 28.0 44.6 117.1 113.4 390.9
05/09 19:00 12.8 87 9.75 10.7 20 28 1017.2 1 22.1 28.3 45.3 119.0 115.8 399.1
05/09 18:50 13 85 9.64 10.5 19 28 1017.2 1 21.9 28.0 44.7 117.5 113.9 392.7
05/09 18:40 13 83 9.41 10.2 19 28 1016.7 0.8 21.4 27.6 43.7 114.8 110.7 381.4
05/09 18:30 13.2 82 9.42 10.2 19 28 1016.6 0.8 21.4 27.6 43.6 114.6 110.6 380.9
05/09 18:20 13.5 80 9.36 10.1 22 35 1016.4 0.8 21.2 27.4 43.2 113.5 109.3 376.5
05/09 18:10 13.6 79 9.3 10 26 39 1016.2 0.8 21.1 27.2 42.9 112.7 108.3 373.1
05/09 18:00 13.5 79 9.24 9.9 24 32 1015.8 0.8 21.0 27.1 42.7 112.1 107.6 370.6
05/09 17:50 13.8 77 9.17 9.8 28 46 1015.5 0.8 20.8 26.9 42.2 110.9 106.2 365.8
05/09 17:40 13.8 78 9.29 10 28 37 1015.3 0.8 21.1 27.1 42.7 112.2 107.8 371.4
05/09 17:30 13.7 80 9.47 10.3 30 39 1015.1 0.8 21.5 27.4 43.5 114.3 110.4 380.4
05/09 17:20 13.9 78 9.35 10.1 39 54 1015 0.8 21.2 27.2 42.9 112.6 108.5 373.7
05/09 17:10 14.2 73 8.91 9.4 39 54 1014.7 0.8 20.2 26.3 40.9 107.4 102.1 351.5
05/09 17:00 14.4 71 8.78 9.2 39 54 1014.6 0.8 19.9 26.1 40.3 105.7 100.1 344.6
05/09 16:50 14.6 69 8.63 9 33 46 1014.5 0.8 19.6 25.8 39.6 103.8 97.9 336.8
05/09 16:40 14.7 69 8.69 9.1 39 56 1014.4 0.8 19.7 25.8 39.8 104.3 98.5 339.1
05/09 16:30 14.8 66 8.36 8.5 43 59 1014.1 0.8 19.0 25.3 38.4 100.7 94.1 323.5
05/09 16:20 15.3 66 8.62 9 41 57 1013.9 0.8 19.6 25.5 39.2 102.8 96.8 333.2
05/09 16:10 15.1 65 8.39 8.6 44 63 1013.6 0.8 19.1 25.2 38.3 100.6 94.1 323.5
05/09 16:00 15.6 67 8.91 9.5 39 57 1013.6 0.8 20.2 25.9 40.1 105.4 100.2 345.0
05/09 15:50 15.2 68 8.83 9.3 44 59 1013.5 0.8 20.0 25.9 40.0 105.1 99.7 343.1
05/09 15:40 15.4 65 8.54 8.9 46 65 1013.4 0.8 19.4 25.3 38.8 101.7 95.6 329.0
05/09 15:30 15.3 63 8.23 8.3 44 63 1013.2 0.8 18.7 24.9 37.6 98.6 91.8 315.4
05/09 15:20 15.7 62 8.3 8.4 44 59 1013 0.8 18.9 24.9 37.7 98.8 92.2 316.9
05/09 15:10 15.5 65 8.59 9 43 59 1013 0.8 19.5 25.4 38.9 102.1 96.1 330.8
05/09 15:00 15.7 65 8.7 9.1 48 65 1012.8 0.8 19.7 25.5 39.2 103.0 97.3 334.8
05/09 14:50 15.6 64 8.51 8.8 39 57 1012.6 0.8 19.3 25.2 38.5 101.1 94.9 326.6
05/09 14:40 14.6 68 8.51 8.8 50 69 1012.7 0.8 19.4 25.5 39.0 102.4 96.2 330.8
05/09 14:30 15.8 60 8.08 8.1 48 67 1012.4 0.8 18.4 24.5 36.8 96.4 89.2 306.6
05/09 14:20 16 58 7.9 7.7 48 69 1012.3 0.8 18.0 24.1 36.0 94.3 86.7 297.9
05/09 14:10 16.1 59 8.09 8.1 50 65 1012.2 0.8 18.4 24.4 36.7 96.1 89.0 305.9
05/09 14:00 16 61 8.31 8.5 50 69 1011.9 0.8 18.9 24.8 37.5 98.4 91.9 315.9
05/09 13:50 16.1 62 8.5 8.8 46 63 1011.7 0.8 19.3 25.0 38.2 100.3 94.1 323.9
05/09 13:40 15.4 57 7.49 6.9 46 69 1011.8 0.8 17.2 23.7 34.7 90.8 82.2 282.1
05/09 13:30 15.7 61 8.16 8.2 50 72 1011.5 0.8 18.6 24.6 37.1 97.2 90.3 310.3

Last Refresh: 06-Sep-2026 06:14:45

Bureau of Meteorology